sensor_id;sensor_type;location;lat;lon;timestamp;P1;durP1;ratioP1;P2;durP2;ratioP2
8716;SDS011;4395;48.554;8.820;2023-05-21T00:01:43;17.90;;;13.43;;
8716;SDS011;4395;48.554;8.820;2023-05-21T00:03:48;14.43;;;12.70;;
8716;SDS011;4395;48.554;8.820;2023-05-21T00:05:52;14.03;;;12.63;;
8716;SDS011;4395;48.554;8.820;2023-05-21T00:07:56;13.70;;;12.30;;
8716;SDS011;4395;48.554;8.820;2023-05-21T00:09:59;14.67;;;13.17;;
8716;SDS011;4395;48.554;8.820;2023-05-21T00:12:02;16.10;;;13.10;;
8716;SDS011;4395;48.554;8.820;2023-05-21T00:14:05;14.53;;;13.13;;
8716;SDS011;4395;48.554;8.820;2023-05-21T00:16:08;15.03;;;13.57;;
8716;SDS011;4395;48.554;8.820;2023-05-21T00:18:11;16.43;;;14.10;;
8716;SDS011;4395;48.554;8.820;2023-05-21T00:20:14;18.77;;;13.90;;
8716;SDS011;4395;48.554;8.820;2023-05-21T00:22:17;15.57;;;13.87;;
8716;SDS011;4395;48.554;8.820;2023-05-21T00:24:21;15.73;;;14.23;;
8716;SDS011;4395;48.554;8.820;2023-05-21T00:26:24;14.73;;;13.20;;
8716;SDS011;4395;48.554;8.820;2023-05-21T00:28:30;15.43;;;13.93;;
8716;SDS011;4395;48.554;8.820;2023-05-21T00:30:33;14.90;;;13.40;;
8716;SDS011;4395;48.554;8.820;2023-05-21T00:32:36;15.67;;;14.07;;
8716;SDS011;4395;48.554;8.820;2023-05-21T00:34:39;16.37;;;14.67;;
8716;SDS011;4395;48.554;8.820;2023-05-21T00:36:43;15.73;;;14.13;;
8716;SDS011;4395;48.554;8.820;2023-05-21T00:38:46;15.63;;;14.03;;
8716;SDS011;4395;48.554;8.820;2023-05-21T00:40:50;16.40;;;14.30;;
8716;SDS011;4395;48.554;8.820;2023-05-21T00:42:53;14.30;;;12.90;;
8716;SDS011;4395;48.554;8.820;2023-05-21T00:44:57;15.13;;;13.63;;
8716;SDS011;4395;48.554;8.820;2023-05-21T00:47:01;16.67;;;14.97;;
8716;SDS011;4395;48.554;8.820;2023-05-21T00:49:04;17.37;;;15.37;;
8716;SDS011;4395;48.554;8.820;2023-05-21T00:51:07;15.40;;;13.90;;
8716;SDS011;4395;48.554;8.820;2023-05-21T00:53:10;15.07;;;13.63;;
8716;SDS011;4395;48.554;8.820;2023-05-21T00:55:15;16.63;;;14.27;;
8716;SDS011;4395;48.554;8.820;2023-05-21T00:57:19;17.50;;;15.53;;
8716;SDS011;4395;48.554;8.820;2023-05-21T00:59:24;15.90;;;14.30;;
8716;SDS011;4395;48.554;8.820;2023-05-21T01:01:27;16.73;;;15.13;;
8716;SDS011;4395;48.554;8.820;2023-05-21T01:03:34;17.23;;;15.43;;
8716;SDS011;4395;48.554;8.820;2023-05-21T01:05:40;16.40;;;14.70;;
8716;SDS011;4395;48.554;8.820;2023-05-21T01:07:45;15.40;;;13.63;;
8716;SDS011;4395;48.554;8.820;2023-05-21T01:09:48;16.93;;;14.37;;
8716;SDS011;4395;48.554;8.820;2023-05-21T01:11:51;16.53;;;14.83;;
8716;SDS011;4395;48.554;8.820;2023-05-21T01:13:56;17.67;;;15.97;;
8716;SDS011;4395;48.554;8.820;2023-05-21T01:15:59;20.90;;;17.70;;
8716;SDS011;4395;48.554;8.820;2023-05-21T01:18:02;20.43;;;17.07;;
8716;SDS011;4395;48.554;8.820;2023-05-21T01:20:06;18.37;;;16.43;;
8716;SDS011;4395;48.554;8.820;2023-05-21T01:22:11;16.77;;;15.17;;
8716;SDS011;4395;48.554;8.820;2023-05-21T01:24:16;19.30;;;15.50;;
8716;SDS011;4395;48.554;8.820;2023-05-21T01:26:20;16.13;;;14.47;;
8716;SDS011;4395;48.554;8.820;2023-05-21T01:28:23;17.00;;;15.20;;
8716;SDS011;4395;48.554;8.820;2023-05-21T01:30:25;23.30;;;20.87;;
8716;SDS011;4395;48.554;8.820;2023-05-21T01:32:30;19.80;;;17.80;;
8716;SDS011;4395;48.554;8.820;2023-05-21T01:34:37;20.70;;;18.20;;
8716;SDS011;4395;48.554;8.820;2023-05-21T01:36:45;19.03;;;17.03;;
8716;SDS011;4395;48.554;8.820;2023-05-21T01:38:54;17.47;;;15.87;;
8716;SDS011;4395;48.554;8.820;2023-05-21T01:41:06;17.00;;;15.40;;
8716;SDS011;4395;48.554;8.820;2023-05-21T01:43:12;21.27;;;18.07;;
8716;SDS011;4395;48.554;8.820;2023-05-21T01:45:16;19.13;;;17.13;;
8716;SDS011;4395;48.554;8.820;2023-05-21T01:47:20;17.40;;;15.40;;
8716;SDS011;4395;48.554;8.820;2023-05-21T01:49:25;16.83;;;15.23;;
8716;SDS011;4395;48.554;8.820;2023-05-21T01:51:29;16.80;;;14.53;;
8716;SDS011;4395;48.554;8.820;2023-05-21T01:53:32;17.63;;;15.47;;
8716;SDS011;4395;48.554;8.820;2023-05-21T01:55:35;16.60;;;15.00;;
8716;SDS011;4395;48.554;8.820;2023-05-21T01:57:43;17.67;;;15.87;;
8716;SDS011;4395;48.554;8.820;2023-05-21T01:59:46;19.10;;;17.20;;
8716;SDS011;4395;48.554;8.820;2023-05-21T02:01:49;20.17;;;18.17;;
8716;SDS011;4395;48.554;8.820;2023-05-21T02:03:52;23.33;;;20.90;;
8716;SDS011;4395;48.554;8.820;2023-05-21T02:05:55;20.50;;;18.50;;
8716;SDS011;4395;48.554;8.820;2023-05-21T02:07:58;17.57;;;15.70;;
8716;SDS011;4395;48.554;8.820;2023-05-21T02:10:01;20.90;;;18.47;;
8716;SDS011;4395;48.554;8.820;2023-05-21T02:12:05;19.27;;;17.37;;
8716;SDS011;4395;48.554;8.820;2023-05-21T02:14:10;17.87;;;15.93;;
8716;SDS011;4395;48.554;8.820;2023-05-21T02:16:14;15.63;;;14.10;;
8716;SDS011;4395;48.554;8.820;2023-05-21T02:18:17;15.93;;;14.37;;
8716;SDS011;4395;48.554;8.820;2023-05-21T02:20:21;15.60;;;14.10;;
8716;SDS011;4395;48.554;8.820;2023-05-21T02:22:24;15.87;;;14.33;;
8716;SDS011;4395;48.554;8.820;2023-05-21T02:24:27;16.57;;;14.97;;
8716;SDS011;4395;48.554;8.820;2023-05-21T02:26:30;15.43;;;13.80;;
8716;SDS011;4395;48.554;8.820;2023-05-21T02:28:33;14.93;;;13.43;;
8716;SDS011;4395;48.554;8.820;2023-05-21T02:30:37;16.77;;;15.03;;
8716;SDS011;4395;48.554;8.820;2023-05-21T02:32:41;16.20;;;14.50;;
8716;SDS011;4395;48.554;8.820;2023-05-21T02:34:45;16.50;;;14.90;;
8716;SDS011;4395;48.554;8.820;2023-05-21T02:36:48;16.60;;;15.00;;
8716;SDS011;4395;48.554;8.820;2023-05-21T02:38:52;15.97;;;14.13;;
8716;SDS011;4395;48.554;8.820;2023-05-21T02:40:58;15.83;;;14.33;;
8716;SDS011;4395;48.554;8.820;2023-05-21T02:43:00;18.87;;;14.03;;
8716;SDS011;4395;48.554;8.820;2023-05-21T02:45:05;16.30;;;14.60;;
8716;SDS011;4395;48.554;8.820;2023-05-21T02:47:12;16.07;;;14.27;;
8716;SDS011;4395;48.554;8.820;2023-05-21T02:49:15;17.07;;;15.47;;
8716;SDS011;4395;48.554;8.820;2023-05-21T02:51:20;17.47;;;15.63;;
8716;SDS011;4395;48.554;8.820;2023-05-21T02:53:23;16.53;;;14.57;;
8716;SDS011;4395;48.554;8.820;2023-05-21T02:55:27;17.90;;;16.00;;
8716;SDS011;4395;48.554;8.820;2023-05-21T02:57:29;37.03;;;33.07;;
8716;SDS011;4395;48.554;8.820;2023-05-21T02:59:32;18.90;;;16.90;;
8716;SDS011;4395;48.554;8.820;2023-05-21T03:01:35;22.27;;;19.97;;
8716;SDS011;4395;48.554;8.820;2023-05-21T03:03:39;20.30;;;18.03;;
8716;SDS011;4395;48.554;8.820;2023-05-21T03:05:42;17.87;;;16.17;;
8716;SDS011;4395;48.554;8.820;2023-05-21T03:07:46;18.00;;;16.20;;
8716;SDS011;4395;48.554;8.820;2023-05-21T03:09:49;16.67;;;15.03;;
8716;SDS011;4395;48.554;8.820;2023-05-21T03:11:51;17.53;;;15.77;;
8716;SDS011;4395;48.554;8.820;2023-05-21T03:13:54;19.30;;;16.27;;
8716;SDS011;4395;48.554;8.820;2023-05-21T03:15:57;18.13;;;16.13;;
8716;SDS011;4395;48.554;8.820;2023-05-21T03:18:00;17.93;;;16.20;;
8716;SDS011;4395;48.554;8.820;2023-05-21T03:20:05;17.27;;;15.57;;
8716;SDS011;4395;48.554;8.820;2023-05-21T03:22:09;19.17;;;16.27;;
8716;SDS011;4395;48.554;8.820;2023-05-21T03:24:13;17.20;;;15.43;;
8716;SDS011;4395;48.554;8.820;2023-05-21T03:26:15;19.53;;;16.77;;
8716;SDS011;4395;48.554;8.820;2023-05-21T03:28:18;18.37;;;15.67;;
8716;SDS011;4395;48.554;8.820;2023-05-21T03:30:22;18.67;;;16.77;;
8716;SDS011;4395;48.554;8.820;2023-05-21T03:32:49;19.20;;;16.27;;
8716;SDS011;4395;48.554;8.820;2023-05-21T03:34:52;18.40;;;16.40;;
8716;SDS011;4395;48.554;8.820;2023-05-21T03:36:58;19.63;;;17.67;;
8716;SDS011;4395;48.554;8.820;2023-05-21T03:39:01;18.90;;;16.50;;
8716;SDS011;4395;48.554;8.820;2023-05-21T03:41:07;19.93;;;17.93;;
8716;SDS011;4395;48.554;8.820;2023-05-21T03:43:10;19.37;;;17.33;;
8716;SDS011;4395;48.554;8.820;2023-05-21T03:45:13;19.13;;;17.33;;
8716;SDS011;4395;48.554;8.820;2023-05-21T03:47:35;19.90;;;17.80;;
8716;SDS011;4395;48.554;8.820;2023-05-21T03:49:40;19.23;;;17.27;;
8716;SDS011;4395;48.554;8.820;2023-05-21T03:51:43;19.10;;;17.20;;
8716;SDS011;4395;48.554;8.820;2023-05-21T03:53:50;19.67;;;17.33;;
8716;SDS011;4395;48.554;8.820;2023-05-21T03:55:53;19.93;;;17.30;;
8716;SDS011;4395;48.554;8.820;2023-05-21T03:57:58;18.70;;;16.70;;
8716;SDS011;4395;48.554;8.820;2023-05-21T04:00:01;19.53;;;17.43;;
8716;SDS011;4395;48.554;8.820;2023-05-21T04:02:05;19.83;;;17.60;;
8716;SDS011;4395;48.554;8.820;2023-05-21T04:04:08;18.73;;;16.83;;
8716;SDS011;4395;48.554;8.820;2023-05-21T04:06:11;20.77;;;17.53;;
8716;SDS011;4395;48.554;8.820;2023-05-21T04:08:14;19.90;;;17.80;;
8716;SDS011;4395;48.554;8.820;2023-05-21T04:10:18;20.17;;;18.07;;
8716;SDS011;4395;48.554;8.820;2023-05-21T04:12:22;20.03;;;17.93;;
8716;SDS011;4395;48.554;8.820;2023-05-21T04:14:25;22.57;;;19.57;;
8716;SDS011;4395;48.554;8.820;2023-05-21T04:16:27;22.83;;;20.43;;
8716;SDS011;4395;48.554;8.820;2023-05-21T04:18:31;24.70;;;22.10;;
8716;SDS011;4395;48.554;8.820;2023-05-21T04:20:34;18.63;;;16.77;;
8716;SDS011;4395;48.554;8.820;2023-05-21T04:22:38;17.37;;;15.57;;
8716;SDS011;4395;48.554;8.820;2023-05-21T04:24:42;18.37;;;16.50;;
8716;SDS011;4395;48.554;8.820;2023-05-21T04:26:52;19.20;;;17.20;;
8716;SDS011;4395;48.554;8.820;2023-05-21T04:28:56;17.67;;;15.93;;
8716;SDS011;4395;48.554;8.820;2023-05-21T04:30:59;18.10;;;16.20;;
8716;SDS011;4395;48.554;8.820;2023-05-21T04:33:02;18.90;;;16.67;;
8716;SDS011;4395;48.554;8.820;2023-05-21T04:35:08;18.03;;;16.13;;
8716;SDS011;4395;48.554;8.820;2023-05-21T04:37:11;18.27;;;15.67;;
8716;SDS011;4395;48.554;8.820;2023-05-21T04:39:14;18.50;;;16.53;;
8716;SDS011;4395;48.554;8.820;2023-05-21T04:41:17;18.03;;;16.13;;
8716;SDS011;4395;48.554;8.820;2023-05-21T04:43:22;18.37;;;16.57;;
8716;SDS011;4395;48.554;8.820;2023-05-21T04:45:29;19.53;;;17.47;;
8716;SDS011;4395;48.554;8.820;2023-05-21T04:47:33;18.83;;;16.90;;
8716;SDS011;4395;48.554;8.820;2023-05-21T04:49:37;18.73;;;16.77;;
8716;SDS011;4395;48.554;8.820;2023-05-21T04:51:40;18.67;;;16.80;;
8716;SDS011;4395;48.554;8.820;2023-05-21T04:53:42;19.40;;;17.40;;
8716;SDS011;4395;48.554;8.820;2023-05-21T04:55:46;18.57;;;16.67;;
8716;SDS011;4395;48.554;8.820;2023-05-21T04:57:49;19.23;;;17.23;;
8716;SDS011;4395;48.554;8.820;2023-05-21T04:59:54;18.57;;;16.77;;
8716;SDS011;4395;48.554;8.820;2023-05-21T05:01:58;20.43;;;18.20;;
8716;SDS011;4395;48.554;8.820;2023-05-21T05:04:01;18.97;;;16.97;;
8716;SDS011;4395;48.554;8.820;2023-05-21T05:06:05;18.87;;;16.93;;
8716;SDS011;4395;48.554;8.820;2023-05-21T05:08:09;18.87;;;16.53;;
8716;SDS011;4395;48.554;8.820;2023-05-21T05:10:16;19.20;;;16.90;;
8716;SDS011;4395;48.554;8.820;2023-05-21T05:12:18;19.23;;;17.23;;
8716;SDS011;4395;48.554;8.820;2023-05-21T05:14:21;19.07;;;17.17;;
8716;SDS011;4395;48.554;8.820;2023-05-21T05:16:25;19.67;;;17.60;;
8716;SDS011;4395;48.554;8.820;2023-05-21T05:18:30;19.40;;;17.50;;
8716;SDS011;4395;48.554;8.820;2023-05-21T05:20:34;18.83;;;17.03;;
8716;SDS011;4395;48.554;8.820;2023-05-21T05:22:38;18.07;;;16.17;;
8716;SDS011;4395;48.554;8.820;2023-05-21T05:24:41;19.27;;;17.37;;
8716;SDS011;4395;48.554;8.820;2023-05-21T05:26:44;18.10;;;16.20;;
8716;SDS011;4395;48.554;8.820;2023-05-21T05:28:47;19.43;;;17.07;;
8716;SDS011;4395;48.554;8.820;2023-05-21T05:30:50;18.87;;;16.97;;
8716;SDS011;4395;48.554;8.820;2023-05-21T05:32:59;17.73;;;15.93;;
8716;SDS011;4395;48.554;8.820;2023-05-21T05:35:04;18.27;;;16.57;;
8716;SDS011;4395;48.554;8.820;2023-05-21T05:37:08;20.27;;;16.87;;
8716;SDS011;4395;48.554;8.820;2023-05-21T05:39:11;19.60;;;16.73;;
8716;SDS011;4395;48.554;8.820;2023-05-21T05:41:14;22.27;;;19.93;;
8716;SDS011;4395;48.554;8.820;2023-05-21T05:43:17;18.53;;;16.60;;
8716;SDS011;4395;48.554;8.820;2023-05-21T05:45:20;19.30;;;16.87;;
8716;SDS011;4395;48.554;8.820;2023-05-21T05:47:23;20.07;;;18.03;;
8716;SDS011;4395;48.554;8.820;2023-05-21T05:49:27;19.20;;;17.13;;
8716;SDS011;4395;48.554;8.820;2023-05-21T05:51:30;19.17;;;17.17;;
8716;SDS011;4395;48.554;8.820;2023-05-21T05:53:33;18.67;;;16.23;;
8716;SDS011;4395;48.554;8.820;2023-05-21T05:55:36;20.70;;;16.77;;
8716;SDS011;4395;48.554;8.820;2023-05-21T05:57:39;19.63;;;16.70;;
8716;SDS011;4395;48.554;8.820;2023-05-21T05:59:47;18.80;;;16.90;;
8716;SDS011;4395;48.554;8.820;2023-05-21T06:01:50;20.80;;;17.60;;
8716;SDS011;4395;48.554;8.820;2023-05-21T06:03:54;21.50;;;17.47;;
8716;SDS011;4395;48.554;8.820;2023-05-21T06:05:59;19.13;;;17.10;;
8716;SDS011;4395;48.554;8.820;2023-05-21T06:08:04;18.53;;;16.60;;
8716;SDS011;4395;48.554;8.820;2023-05-21T06:10:07;19.57;;;17.57;;
8716;SDS011;4395;48.554;8.820;2023-05-21T06:12:11;18.00;;;16.20;;
8716;SDS011;4395;48.554;8.820;2023-05-21T06:14:16;17.27;;;15.57;;
8716;SDS011;4395;48.554;8.820;2023-05-21T06:16:19;17.03;;;15.33;;
8716;SDS011;4395;48.554;8.820;2023-05-21T06:18:21;16.97;;;15.27;;
8716;SDS011;4395;48.554;8.820;2023-05-21T06:20:24;17.87;;;16.07;;
8716;SDS011;4395;48.554;8.820;2023-05-21T06:22:29;18.60;;;16.60;;
8716;SDS011;4395;48.554;8.820;2023-05-21T06:24:32;18.17;;;16.40;;
8716;SDS011;4395;48.554;8.820;2023-05-21T06:26:36;18.03;;;15.50;;
8716;SDS011;4395;48.554;8.820;2023-05-21T06:28:39;17.30;;;15.53;;
8716;SDS011;4395;48.554;8.820;2023-05-21T06:30:43;16.57;;;15.07;;
8716;SDS011;4395;48.554;8.820;2023-05-21T06:32:46;19.87;;;16.00;;
8716;SDS011;4395;48.554;8.820;2023-05-21T06:34:50;16.80;;;15.07;;
8716;SDS011;4395;48.554;8.820;2023-05-21T06:36:53;16.40;;;14.80;;
8716;SDS011;4395;48.554;8.820;2023-05-21T06:39:04;16.50;;;14.90;;
8716;SDS011;4395;48.554;8.820;2023-05-21T06:41:08;16.50;;;14.80;;
8716;SDS011;4395;48.554;8.820;2023-05-21T06:43:26;18.13;;;14.10;;
8716;SDS011;4395;48.554;8.820;2023-05-21T06:45:48;16.83;;;15.13;;
8716;SDS011;4395;48.554;8.820;2023-05-21T06:48:01;16.87;;;15.17;;
8716;SDS011;4395;48.554;8.820;2023-05-21T06:50:04;15.87;;;14.37;;
8716;SDS011;4395;48.554;8.820;2023-05-21T06:52:08;15.97;;;13.93;;
8716;SDS011;4395;48.554;8.820;2023-05-21T06:54:13;15.43;;;13.87;;
8716;SDS011;4395;48.554;8.820;2023-05-21T06:56:16;16.43;;;14.73;;
8716;SDS011;4395;48.554;8.820;2023-05-21T06:58:19;16.10;;;14.47;;
8716;SDS011;4395;48.554;8.820;2023-05-21T07:00:22;15.40;;;13.90;;
8716;SDS011;4395;48.554;8.820;2023-05-21T07:02:26;16.53;;;13.23;;
8716;SDS011;4395;48.554;8.820;2023-05-21T07:04:29;15.90;;;14.43;;
8716;SDS011;4395;48.554;8.820;2023-05-21T07:06:32;16.60;;;14.10;;
8716;SDS011;4395;48.554;8.820;2023-05-21T07:08:37;14.47;;;13.00;;
8716;SDS011;4395;48.554;8.820;2023-05-21T07:10:41;17.80;;;13.60;;
8716;SDS011;4395;48.554;8.820;2023-05-21T07:12:45;8.23;;;7.10;;
8716;SDS011;4395;48.554;8.820;2023-05-21T07:14:48;7.27;;;6.57;;
8716;SDS011;4395;48.554;8.820;2023-05-21T07:16:51;8.40;;;7.60;;
8716;SDS011;4395;48.554;8.820;2023-05-21T07:18:54;9.20;;;8.30;;
8716;SDS011;4395;48.554;8.820;2023-05-21T07:20:57;9.90;;;8.07;;
8716;SDS011;4395;48.554;8.820;2023-05-21T07:23:01;10.20;;;9.20;;
8716;SDS011;4395;48.554;8.820;2023-05-21T07:25:04;9.33;;;8.43;;
8716;SDS011;4395;48.554;8.820;2023-05-21T07:27:09;9.70;;;8.70;;
8716;SDS011;4395;48.554;8.820;2023-05-21T07:29:27;10.20;;;9.30;;
8716;SDS011;4395;48.554;8.820;2023-05-21T07:31:30;10.27;;;9.30;;
8716;SDS011;4395;48.554;8.820;2023-05-21T07:33:34;11.73;;;10.60;;
8716;SDS011;4395;48.554;8.820;2023-05-21T07:35:36;14.23;;;12.67;;
8716;SDS011;4395;48.554;8.820;2023-05-21T07:37:39;14.67;;;12.47;;
8716;SDS011;4395;48.554;8.820;2023-05-21T07:39:43;14.80;;;13.30;;
8716;SDS011;4395;48.554;8.820;2023-05-21T07:41:46;14.10;;;12.70;;
8716;SDS011;4395;48.554;8.820;2023-05-21T07:43:50;14.60;;;13.13;;
8716;SDS011;4395;48.554;8.820;2023-05-21T07:45:53;15.80;;;14.30;;
8716;SDS011;4395;48.554;8.820;2023-05-21T07:47:57;13.53;;;12.33;;
8716;SDS011;4395;48.554;8.820;2023-05-21T07:50:01;14.93;;;13.63;;
8716;SDS011;4395;48.554;8.820;2023-05-21T07:52:04;14.80;;;13.23;;
8716;SDS011;4395;48.554;8.820;2023-05-21T07:54:07;15.20;;;13.37;;
8716;SDS011;4395;48.554;8.820;2023-05-21T07:56:10;14.53;;;13.13;;
8716;SDS011;4395;48.554;8.820;2023-05-21T07:58:14;14.73;;;13.30;;
8716;SDS011;4395;48.554;8.820;2023-05-21T08:00:21;14.80;;;13.30;;
8716;SDS011;4395;48.554;8.820;2023-05-21T08:02:28;15.27;;;12.90;;
8716;SDS011;4395;48.554;8.820;2023-05-21T08:04:31;15.73;;;14.23;;
8716;SDS011;4395;48.554;8.820;2023-05-21T08:06:35;14.47;;;12.77;;
8716;SDS011;4395;48.554;8.820;2023-05-21T08:08:40;14.67;;;13.33;;
8716;SDS011;4395;48.554;8.820;2023-05-21T08:10:43;14.80;;;13.37;;
8716;SDS011;4395;48.554;8.820;2023-05-21T08:12:46;14.50;;;13.00;;
8716;SDS011;4395;48.554;8.820;2023-05-21T08:14:49;14.67;;;13.27;;
8716;SDS011;4395;48.554;8.820;2023-05-21T08:16:53;14.20;;;12.80;;
8716;SDS011;4395;48.554;8.820;2023-05-21T08:18:57;14.60;;;13.20;;
8716;SDS011;4395;48.554;8.820;2023-05-21T08:21:00;14.57;;;13.27;;
8716;SDS011;4395;48.554;8.820;2023-05-21T08:23:03;15.40;;;13.53;;
8716;SDS011;4395;48.554;8.820;2023-05-21T08:25:13;14.87;;;12.53;;
8716;SDS011;4395;48.554;8.820;2023-05-21T08:27:16;15.13;;;13.60;;
8716;SDS011;4395;48.554;8.820;2023-05-21T08:29:19;13.27;;;12.03;;
8716;SDS011;4395;48.554;8.820;2023-05-21T08:31:22;14.10;;;12.80;;
8716;SDS011;4395;48.554;8.820;2023-05-21T08:33:26;16.83;;;13.00;;
8716;SDS011;4395;48.554;8.820;2023-05-21T08:35:29;14.63;;;13.10;;
8716;SDS011;4395;48.554;8.820;2023-05-21T08:37:49;13.23;;;11.93;;
8716;SDS011;4395;48.554;8.820;2023-05-21T08:40:00;15.30;;;13.80;;
8716;SDS011;4395;48.554;8.820;2023-05-21T08:42:10;14.90;;;13.50;;
8716;SDS011;4395;48.554;8.820;2023-05-21T08:44:37;16.63;;;14.93;;
8716;SDS011;4395;48.554;8.820;2023-05-21T08:46:48;13.50;;;12.10;;
8716;SDS011;4395;48.554;8.820;2023-05-21T08:48:53;20.93;;;18.20;;
8716;SDS011;4395;48.554;8.820;2023-05-21T08:50:58;13.77;;;12.47;;
8716;SDS011;4395;48.554;8.820;2023-05-21T08:53:05;13.63;;;11.80;;
8716;SDS011;4395;48.554;8.820;2023-05-21T08:55:28;16.20;;;13.60;;
8716;SDS011;4395;48.554;8.820;2023-05-21T08:57:32;12.50;;;11.40;;
8716;SDS011;4395;48.554;8.820;2023-05-21T08:59:36;12.87;;;11.63;;
8716;SDS011;4395;48.554;8.820;2023-05-21T09:01:50;12.50;;;11.40;;
8716;SDS011;4395;48.554;8.820;2023-05-21T09:04:00;11.90;;;10.90;;
8716;SDS011;4395;48.554;8.820;2023-05-21T09:06:22;12.67;;;10.83;;
8716;SDS011;4395;48.554;8.820;2023-05-21T09:08:28;12.50;;;11.20;;
8716;SDS011;4395;48.554;8.820;2023-05-21T09:10:41;12.40;;;11.13;;
8716;SDS011;4395;48.554;8.820;2023-05-21T09:12:50;12.07;;;10.97;;
8716;SDS011;4395;48.554;8.820;2023-05-21T09:14:52;14.83;;;11.63;;
8716;SDS011;4395;48.554;8.820;2023-05-21T09:17:02;12.43;;;11.27;;
8716;SDS011;4395;48.554;8.820;2023-05-21T09:19:06;12.03;;;10.93;;
8716;SDS011;4395;48.554;8.820;2023-05-21T09:21:22;12.90;;;11.50;;
8716;SDS011;4395;48.554;8.820;2023-05-21T09:23:29;13.17;;;11.87;;
8716;SDS011;4395;48.554;8.820;2023-05-21T09:25:32;12.80;;;11.70;;
8716;SDS011;4395;48.554;8.820;2023-05-21T09:27:44;12.40;;;11.20;;
8716;SDS011;4395;48.554;8.820;2023-05-21T09:29:47;12.87;;;11.53;;
8716;SDS011;4395;48.554;8.820;2023-05-21T09:31:49;13.63;;;12.33;;
8716;SDS011;4395;48.554;8.820;2023-05-21T09:33:55;13.37;;;12.10;;
8716;SDS011;4395;48.554;8.820;2023-05-21T09:36:00;13.73;;;12.53;;
8716;SDS011;4395;48.554;8.820;2023-05-21T09:38:06;12.67;;;11.47;;
8716;SDS011;4395;48.554;8.820;2023-05-21T09:40:10;12.80;;;11.60;;
8716;SDS011;4395;48.554;8.820;2023-05-21T09:42:18;12.67;;;11.47;;
8716;SDS011;4395;48.554;8.820;2023-05-21T09:44:22;13.03;;;11.43;;
8716;SDS011;4395;48.554;8.820;2023-05-21T09:46:25;12.50;;;11.30;;
8716;SDS011;4395;48.554;8.820;2023-05-21T09:48:31;12.03;;;10.93;;
8716;SDS011;4395;48.554;8.820;2023-05-21T09:50:36;13.07;;;11.37;;
8716;SDS011;4395;48.554;8.820;2023-05-21T09:52:40;12.43;;;11.20;;
8716;SDS011;4395;48.554;8.820;2023-05-21T09:54:43;12.40;;;11.20;;
8716;SDS011;4395;48.554;8.820;2023-05-21T09:56:46;12.90;;;11.67;;
8716;SDS011;4395;48.554;8.820;2023-05-21T09:58:52;12.40;;;11.20;;
8716;SDS011;4395;48.554;8.820;2023-05-21T10:00:55;13.33;;;12.10;;
8716;SDS011;4395;48.554;8.820;2023-05-21T10:02:59;13.30;;;12.00;;
8716;SDS011;4395;48.554;8.820;2023-05-21T10:05:03;13.53;;;12.33;;
8716;SDS011;4395;48.554;8.820;2023-05-21T10:07:10;11.97;;;10.97;;
8716;SDS011;4395;48.554;8.820;2023-05-21T10:09:14;12.23;;;11.07;;
8716;SDS011;4395;48.554;8.820;2023-05-21T10:11:21;12.10;;;11.03;;
8716;SDS011;4395;48.554;8.820;2023-05-21T10:13:25;11.67;;;10.67;;
8716;SDS011;4395;48.554;8.820;2023-05-21T10:15:29;11.90;;;10.80;;
8716;SDS011;4395;48.554;8.820;2023-05-21T10:17:33;13.20;;;12.00;;
8716;SDS011;4395;48.554;8.820;2023-05-21T10:19:37;12.77;;;11.57;;
8716;SDS011;4395;48.554;8.820;2023-05-21T10:21:42;11.00;;;10.00;;
8716;SDS011;4395;48.554;8.820;2023-05-21T10:23:46;11.33;;;10.10;;
8716;SDS011;4395;48.554;8.820;2023-05-21T10:25:52;10.70;;;9.80;;
8716;SDS011;4395;48.554;8.820;2023-05-21T10:27:55;11.23;;;10.13;;
8716;SDS011;4395;48.554;8.820;2023-05-21T10:29:58;11.53;;;10.57;;
8716;SDS011;4395;48.554;8.820;2023-05-21T10:32:01;11.20;;;10.10;;
8716;SDS011;4395;48.554;8.820;2023-05-21T10:34:06;11.97;;;10.83;;
8716;SDS011;4395;48.554;8.820;2023-05-21T10:36:11;10.80;;;9.70;;
8716;SDS011;4395;48.554;8.820;2023-05-21T10:38:17;10.77;;;9.87;;
8716;SDS011;4395;48.554;8.820;2023-05-21T10:40:21;10.90;;;9.90;;
8716;SDS011;4395;48.554;8.820;2023-05-21T10:42:40;10.93;;;10.03;;
8716;SDS011;4395;48.554;8.820;2023-05-21T10:45:01;11.63;;;10.63;;
8716;SDS011;4395;48.554;8.820;2023-05-21T10:47:19;10.90;;;10.00;;
8716;SDS011;4395;48.554;8.820;2023-05-21T10:49:51;10.80;;;9.90;;
8716;SDS011;4395;48.554;8.820;2023-05-21T10:52:06;10.17;;;9.30;;
8716;SDS011;4395;48.554;8.820;2023-05-21T10:54:34;10.67;;;9.77;;
8716;SDS011;4395;48.554;8.820;2023-05-21T10:56:52;12.33;;;10.10;;
8716;SDS011;4395;48.554;8.820;2023-05-21T10:59:08;10.47;;;9.37;;
8716;SDS011;4395;48.554;8.820;2023-05-21T11:01:22;11.20;;;10.20;;
8716;SDS011;4395;48.554;8.820;2023-05-21T11:03:27;10.30;;;9.30;;
8716;SDS011;4395;48.554;8.820;2023-05-21T11:05:37;10.93;;;10.07;;
8716;SDS011;4395;48.554;8.820;2023-05-21T11:07:50;10.63;;;9.30;;
8716;SDS011;4395;48.554;8.820;2023-05-21T11:12:53;10.50;;;9.20;;
8716;SDS011;4395;48.554;8.820;2023-05-21T11:15:08;10.20;;;9.40;;
8716;SDS011;4395;48.554;8.820;2023-05-21T11:17:34;11.03;;;10.13;;
8716;SDS011;4395;48.554;8.820;2023-05-21T11:19:38;11.03;;;9.87;;
8716;SDS011;4395;48.554;8.820;2023-05-21T11:21:42;11.33;;;9.57;;
8716;SDS011;4395;48.554;8.820;2023-05-21T11:23:52;11.10;;;10.10;;
8716;SDS011;4395;48.554;8.820;2023-05-21T11:25:59;11.37;;;10.37;;
8716;SDS011;4395;48.554;8.820;2023-05-21T11:28:03;11.50;;;10.60;;
8716;SDS011;4395;48.554;8.820;2023-05-21T11:30:14;11.07;;;9.97;;
8716;SDS011;4395;48.554;8.820;2023-05-21T11:32:18;10.90;;;9.80;;
8716;SDS011;4395;48.554;8.820;2023-05-21T11:34:21;10.80;;;9.90;;
8716;SDS011;4395;48.554;8.820;2023-05-21T11:36:29;10.10;;;9.20;;
8716;SDS011;4395;48.554;8.820;2023-05-21T11:38:33;11.10;;;10.10;;
8716;SDS011;4395;48.554;8.820;2023-05-21T11:40:36;11.03;;;10.03;;
8716;SDS011;4395;48.554;8.820;2023-05-21T11:42:39;11.13;;;9.73;;
8716;SDS011;4395;48.554;8.820;2023-05-21T11:44:44;10.63;;;9.77;;
8716;SDS011;4395;48.554;8.820;2023-05-21T11:46:50;10.17;;;9.30;;
8716;SDS011;4395;48.554;8.820;2023-05-21T11:48:53;10.53;;;9.50;;
8716;SDS011;4395;48.554;8.820;2023-05-21T11:50:57;10.53;;;9.63;;
8716;SDS011;4395;48.554;8.820;2023-05-21T11:53:01;14.27;;;12.90;;
8716;SDS011;4395;48.554;8.820;2023-05-21T11:55:05;10.90;;;9.80;;
8716;SDS011;4395;48.554;8.820;2023-05-21T11:57:08;11.17;;;10.07;;
8716;SDS011;4395;48.554;8.820;2023-05-21T11:59:14;10.53;;;9.53;;
8716;SDS011;4395;48.554;8.820;2023-05-21T12:01:22;15.73;;;14.33;;
8716;SDS011;4395;48.554;8.820;2023-05-21T12:03:26;13.37;;;12.13;;
8716;SDS011;4395;48.554;8.820;2023-05-21T12:05:31;10.83;;;9.93;;
8716;SDS011;4395;48.554;8.820;2023-05-21T12:07:46;11.20;;;10.07;;
8716;SDS011;4395;48.554;8.820;2023-05-21T12:09:50;10.50;;;9.60;;
8716;SDS011;4395;48.554;8.820;2023-05-21T12:11:53;10.10;;;9.30;;
8716;SDS011;4395;48.554;8.820;2023-05-21T12:13:56;11.10;;;9.97;;
8716;SDS011;4395;48.554;8.820;2023-05-21T12:15:59;10.93;;;9.93;;
8716;SDS011;4395;48.554;8.820;2023-05-21T12:18:07;11.03;;;10.10;;
8716;SDS011;4395;48.554;8.820;2023-05-21T12:20:11;10.47;;;9.47;;
8716;SDS011;4395;48.554;8.820;2023-05-21T12:22:16;9.50;;;8.70;;
8716;SDS011;4395;48.554;8.820;2023-05-21T12:24:20;10.67;;;9.53;;
8716;SDS011;4395;48.554;8.820;2023-05-21T12:26:23;9.80;;;9.00;;
8716;SDS011;4395;48.554;8.820;2023-05-21T12:28:26;10.00;;;9.10;;
8716;SDS011;4395;48.554;8.820;2023-05-21T12:30:29;10.10;;;9.10;;
8716;SDS011;4395;48.554;8.820;2023-05-21T12:32:32;9.80;;;8.80;;
8716;SDS011;4395;48.554;8.820;2023-05-21T12:34:36;9.17;;;8.37;;
8716;SDS011;4395;48.554;8.820;2023-05-21T12:36:41;10.93;;;8.80;;
8716;SDS011;4395;48.554;8.820;2023-05-21T12:38:46;9.50;;;8.67;;
8716;SDS011;4395;48.554;8.820;2023-05-21T12:40:49;8.97;;;8.07;;